createdAt,value
2023-01-20T00:02:09.528Z,-3.04
2023-01-20T00:07:16.791Z,-3.07
2023-01-20T00:12:23.700Z,-3.09
2023-01-20T00:17:30.704Z,-3.11
2023-01-20T00:22:42.473Z,-3.13
2023-01-20T00:27:49.439Z,-3.17
2023-01-20T00:32:56.485Z,-3.22
2023-01-20T00:38:03.497Z,-3.26
2023-01-20T00:43:12.677Z,-3.32
2023-01-20T00:48:19.615Z,-3.37
2023-01-20T00:53:26.375Z,-3.44
2023-01-20T00:58:33.230Z,-3.51
2023-01-20T01:03:40.172Z,-3.60
2023-01-20T01:08:58.647Z,-3.67
2023-01-20T01:14:07.110Z,-3.71
2023-01-20T01:19:14.592Z,-3.77
2023-01-20T01:24:22.046Z,-3.81
2023-01-20T01:29:29.179Z,-3.88
2023-01-20T01:34:36.273Z,-3.92
2023-01-20T01:39:43.363Z,-3.94
2023-01-20T01:45:30.312Z,-3.97
2023-01-20T01:50:51.637Z,-3.98
2023-01-20T01:56:03.228Z,-3.97
2023-01-20T02:01:10.324Z,-3.97
2023-01-20T02:06:19.533Z,-3.96
2023-01-20T02:11:26.759Z,-3.95
2023-01-20T02:16:44.977Z,-3.95
2023-01-20T02:22:23.667Z,-3.93
2023-01-20T02:28:01.735Z,-3.90
2023-01-20T02:33:29.993Z,-3.83
2023-01-20T02:39:05.444Z,-3.79
2023-01-20T02:44:28.432Z,-3.76
2023-01-20T02:49:48.587Z,-3.73
2023-01-20T02:55:16.774Z,-3.69
2023-01-20T03:00:34.565Z,-3.65
2023-01-20T03:05:58.247Z,-3.61
2023-01-20T03:11:10.259Z,-3.59
2023-01-20T03:16:24.526Z,-3.56
2023-01-20T03:21:37.928Z,-3.52
2023-01-20T03:26:47.174Z,-3.49
2023-01-20T03:32:10.826Z,-3.45
2023-01-20T03:37:27.357Z,-3.45
2023-01-20T03:42:42.507Z,-3.46
2023-01-20T03:48:06.492Z,-3.46
2023-01-20T03:53:27.809Z,-3.46
2023-01-20T03:58:42.570Z,-3.49
2023-01-20T04:04:02.965Z,-3.51
2023-01-20T04:09:23.312Z,-3.55
2023-01-20T04:14:34.054Z,-3.60
2023-01-20T04:19:46.003Z,-3.65
2023-01-20T04:25:05.871Z,-3.67
2023-01-20T04:30:16.668Z,-3.74
2023-01-20T04:35:32.718Z,-3.82
2023-01-20T04:40:43.418Z,-3.89
2023-01-20T04:45:57.281Z,-3.96
2023-01-20T04:51:13.358Z,-4.04
2023-01-20T04:56:28.333Z,-4.10
2023-01-20T05:01:39.982Z,-4.14
2023-01-20T05:06:51.566Z,-4.17
2023-01-20T05:12:12.609Z,-4.19
2023-01-20T05:17:21.226Z,-4.15
2023-01-20T05:22:33.874Z,-4.08
2023-01-20T05:27:45.449Z,-3.96
2023-01-20T05:32:54.115Z,-3.82
2023-01-20T05:38:03.665Z,-3.71
2023-01-20T05:43:14.848Z,-3.61
2023-01-20T05:48:24.775Z,-3.51
2023-01-20T05:53:35.569Z,-3.42
2023-01-20T05:58:45.426Z,-3.34
2023-01-20T06:03:57.810Z,-3.29
2023-01-20T06:09:09.147Z,-3.23
2023-01-20T06:14:20.875Z,-3.18
2023-01-20T06:19:30.411Z,-3.14
2023-01-20T06:24:46.358Z,-3.16
2023-01-20T06:29:54.054Z,-3.20
2023-01-20T06:35:01.191Z,-3.23
2023-01-20T06:40:10.603Z,-3.23
2023-01-20T06:45:17.952Z,-3.23
2023-01-20T06:50:24.963Z,-3.25
2023-01-20T06:55:31.930Z,-3.30
2023-01-20T07:00:39.115Z,-3.36
2023-01-20T07:05:46.305Z,-3.45
2023-01-20T07:10:53.262Z,-3.57
2023-01-20T07:16:00.315Z,-3.71
2023-01-20T07:21:07.978Z,-3.79
2023-01-20T07:26:21.176Z,-3.87
2023-01-20T07:31:35.567Z,-3.94
2023-01-20T07:36:43.910Z,-3.99
2023-01-20T07:41:57.710Z,-4.00
2023-01-20T07:47:06.306Z,-3.94
2023-01-20T07:52:17.253Z,-3.88
2023-01-20T07:57:26.098Z,-3.78
2023-01-20T08:02:40.309Z,-3.53
2023-01-20T08:07:51.333Z,-3.41
2023-01-20T08:13:02.981Z,-3.24
2023-01-20T08:18:10.200Z,-3.09
2023-01-20T08:23:17.906Z,-2.94
2023-01-20T08:28:25.512Z,-2.72
2023-01-20T08:33:34.301Z,-2.52
2023-01-20T08:38:42.325Z,-2.35
2023-01-20T08:43:50.243Z,-2.22
2023-01-20T08:48:59.368Z,-2.13
2023-01-20T08:54:06.337Z,-2.05
2023-01-20T08:59:15.360Z,-1.95
2023-01-20T09:04:25.650Z,-1.84
2023-01-20T09:09:33.059Z,-1.76
2023-01-20T09:14:41.021Z,-1.67
2023-01-20T09:19:47.847Z,-1.52
2023-01-20T09:24:54.875Z,-1.40
2023-01-20T09:30:01.798Z,-1.31
2023-01-20T09:35:10.559Z,-1.17
2023-01-20T09:40:38.980Z,-1.01
2023-01-20T09:45:54.586Z,-0.87
2023-01-20T09:51:26.892Z,-0.73
2023-01-20T09:56:39.011Z,-0.57
2023-01-20T10:01:53.994Z,-0.47
2023-01-20T10:07:10.232Z,-0.34
2023-01-20T10:12:20.879Z,-0.19
2023-01-20T10:17:33.681Z,-0.09
2023-01-20T10:22:46.732Z,0.02
2023-01-20T10:28:10.069Z,0.15
2023-01-20T10:33:22.344Z,0.27
2023-01-20T10:38:37.839Z,0.41
2023-01-20T10:43:45.594Z,0.53
2023-01-20T10:49:21.368Z,0.65
2023-01-20T10:54:40.095Z,0.77
2023-01-20T10:59:51.428Z,0.87
2023-01-20T11:05:03.335Z,0.97
2023-01-20T11:10:16.630Z,1.07
2023-01-20T11:15:28.140Z,1.19
2023-01-20T11:20:38.134Z,1.29
2023-01-20T11:25:54.589Z,1.45
2023-01-20T11:31:02.185Z,1.64
2023-01-20T11:36:18.742Z,1.74
2023-01-20T11:41:28.729Z,1.85
2023-01-20T11:46:46.298Z,1.95
2023-01-20T11:52:06.608Z,2.03
2023-01-20T11:57:18.057Z,2.11
2023-01-20T12:02:33.431Z,2.24
2023-01-20T12:07:46.698Z,2.28
2023-01-20T12:13:05.253Z,2.30
2023-01-20T12:18:20.725Z,2.28
2023-01-20T12:23:46.113Z,2.31
2023-01-20T12:29:01.025Z,2.36
2023-01-20T12:34:13.412Z,2.38
2023-01-20T12:39:40.481Z,2.36
2023-01-20T12:44:54.754Z,2.34
2023-01-20T12:50:18.750Z,2.34
2023-01-20T12:55:45.333Z,2.36
2023-01-20T13:01:22.167Z,2.39
2023-01-20T13:06:43.726Z,2.40
2023-01-20T13:12:05.476Z,2.43
2023-01-20T13:17:25.931Z,2.41
2023-01-20T13:22:35.899Z,2.39
2023-01-20T13:27:43.041Z,2.36
2023-01-20T13:32:51.509Z,2.35
2023-01-20T13:38:01.530Z,2.35
2023-01-20T13:43:38.654Z,2.29
2023-01-20T13:49:16.326Z,2.24
2023-01-20T13:54:48.069Z,2.16
2023-01-20T13:59:55.523Z,2.09
2023-01-20T14:05:02.662Z,2.02
2023-01-20T14:10:15.618Z,1.97
2023-01-20T14:15:37.091Z,1.95
2023-01-20T14:20:46.589Z,1.90
2023-01-20T14:26:02.251Z,1.85
2023-01-20T14:31:21.912Z,1.80
2023-01-20T14:36:31.544Z,1.76
2023-01-20T14:41:48.981Z,1.68
2023-01-20T14:46:58.217Z,1.61
2023-01-20T14:52:08.047Z,1.56
2023-01-20T14:57:25.066Z,1.50
2023-01-20T15:02:35.156Z,1.41
2023-01-20T15:07:42.166Z,1.33
2023-01-20T15:12:57.157Z,1.24
2023-01-20T15:18:23.095Z,1.16
2023-01-20T15:23:39.452Z,1.07
2023-01-20T15:28:46.895Z,1.00
2023-01-20T15:33:53.974Z,0.95
2023-01-20T15:39:01.003Z,0.89
2023-01-20T15:44:08.615Z,0.81
2023-01-20T15:49:16.164Z,0.76
2023-01-20T15:54:23.084Z,0.71
2023-01-20T15:59:31.552Z,0.66
2023-01-20T16:04:38.712Z,0.62
2023-01-20T16:09:46.810Z,0.59
2023-01-20T16:14:53.939Z,0.56
2023-01-20T16:20:02.438Z,0.54
2023-01-20T16:25:11.788Z,0.49
2023-01-20T16:30:21.909Z,0.44
2023-01-20T16:35:31.866Z,0.38
2023-01-20T16:40:45.519Z,0.30
2023-01-20T16:45:55.419Z,0.21
2023-01-20T16:51:05.547Z,0.15
2023-01-20T16:56:16.032Z,0.10
2023-01-20T17:01:24.768Z,0.07
2023-01-20T17:06:38.801Z,0.04
2023-01-20T17:11:47.375Z,-0.00
2023-01-20T17:16:56.112Z,0.01
2023-01-20T17:22:03.162Z,0.02
2023-01-20T17:27:10.234Z,0.02
2023-01-20T17:32:19.088Z,0.01
2023-01-20T17:37:26.907Z,0.03
2023-01-20T17:42:35.956Z,0.10
2023-01-20T17:47:43.023Z,0.16
2023-01-20T17:52:50.245Z,0.22
2023-01-20T17:57:57.198Z,0.25
2023-01-20T18:03:08.735Z,0.26
2023-01-20T18:08:16.965Z,0.27
2023-01-20T18:13:23.918Z,0.28
2023-01-20T18:18:30.821Z,0.25
2023-01-20T18:23:39.266Z,0.21
2023-01-20T18:28:48.023Z,0.20
2023-01-20T18:33:57.019Z,0.22
2023-01-20T18:39:07.143Z,0.22
2023-01-20T18:44:14.941Z,0.20
2023-01-20T18:49:22.214Z,0.19
2023-01-20T18:54:32.921Z,0.17
2023-01-20T18:59:41.919Z,0.16
2023-01-20T19:04:48.899Z,0.14
2023-01-20T19:09:56.529Z,0.13
2023-01-20T19:15:03.571Z,0.11
2023-01-20T19:20:12.645Z,0.10
2023-01-20T19:25:19.983Z,0.09
2023-01-20T19:30:27.106Z,0.08
2023-01-20T19:35:34.867Z,0.08
2023-01-20T19:40:42.018Z,0.05
2023-01-20T19:45:49.541Z,0.02
2023-01-20T19:50:56.461Z,-0.01
2023-01-20T19:56:08.965Z,-0.03
2023-01-20T20:01:18.142Z,-0.06
2023-01-20T20:06:30.938Z,-0.06
2023-01-20T20:11:39.560Z,-0.04
2023-01-20T20:16:47.128Z,-0.04
2023-01-20T20:21:55.260Z,-0.08
2023-01-20T20:27:02.286Z,-0.08
2023-01-20T20:32:09.766Z,-0.11
2023-01-20T20:37:16.710Z,-0.11
2023-01-20T20:42:23.752Z,-0.15
2023-01-20T20:47:33.238Z,-0.21
2023-01-20T20:52:41.017Z,-0.24
2023-01-20T20:57:48.014Z,-0.28
2023-01-20T21:02:56.922Z,-0.34
2023-01-20T21:08:29.002Z,-0.40
2023-01-20T21:14:04.493Z,-0.49
2023-01-20T21:19:46.673Z,-0.58
2023-01-20T21:25:18.012Z,-0.70
2023-01-20T21:30:37.351Z,-0.76
2023-01-20T21:35:44.430Z,-0.80
2023-01-20T21:41:01.445Z,-0.86
2023-01-20T21:46:08.617Z,-0.92
2023-01-20T21:51:32.720Z,-0.97
2023-01-20T21:56:39.978Z,-1.01
2023-01-20T22:01:47.263Z,-1.04
2023-01-20T22:06:54.443Z,-1.09
2023-01-20T22:12:01.718Z,-1.16
2023-01-20T22:17:09.865Z,-1.20
2023-01-20T22:22:17.127Z,-1.21
2023-01-20T22:27:24.428Z,-1.22
2023-01-20T22:32:31.723Z,-1.22
2023-01-20T22:37:38.717Z,-1.21
2023-01-20T22:42:46.085Z,-1.18
2023-01-20T22:47:53.637Z,-1.17
2023-01-20T22:53:00.767Z,-1.15
2023-01-20T22:58:07.898Z,-1.12
2023-01-20T23:03:14.948Z,-1.12
2023-01-20T23:08:22.434Z,-1.11
2023-01-20T23:13:30.140Z,-1.08
2023-01-20T23:18:37.378Z,-1.06
2023-01-20T23:23:44.774Z,-1.03
2023-01-20T23:28:56.743Z,-0.99
2023-01-20T23:34:11.865Z,-0.96
2023-01-20T23:39:19.738Z,-0.92
2023-01-20T23:44:32.875Z,-0.91
2023-01-20T23:49:46.990Z,-0.89
2023-01-20T23:54:54.780Z,-0.90
